Overview Statistics Trail Chart Weather Telemetry Raw packets
 

This is the latest recevied weather packets stored in our database for station/object KD8DNO-13. If no packets are shown the sender has not sent any weather packets the latest 10 day(s).

<< 14 15 16 17 18 19 20 >>
Time Temp. Humidity Pressure Rain* Wind** Luminosity Snow
1788463083 30° C 71% 1017.2 hPa 0 mm - - -
1788462783 30.56° C 69% 1017.6 hPa 0 mm - - -
1788462483 31.11° C 66% 1017.6 hPa 0 mm - - -
1788462183 31.11° C 64% 1017.6 hPa 0 mm - - -
1788461883 31.67° C 65% 1017.6 hPa 0 mm - - -
1788461583 32.22° C 64% 1017.6 hPa 0 mm - - -
1788461283 32.22° C 64% 1017.6 hPa 0 mm - - -
1788460983 34.44° C 59% 1017.6 hPa 0 mm - - -
1788460683 33.89° C 59% 1017.6 hPa 0 mm - - -
1788460383 33.89° C 57% 1017.6 hPa 0 mm - - -
1788460084 35° C 56% 1017.6 hPa 0 mm - - -
1788459783 35° C 53% 1017.6 hPa 0 mm - - -
1788459483 35° C 54% 1017.6 hPa 0 mm - - -
1788459183 35° C 55% 1017.9 hPa 0 mm - - -
1788458884 35° C 56% 1017.9 hPa 0 mm - - -
1788458583 34.44° C 56% 1017.9 hPa 0 mm - - -
1788458283 34.44° C 55% 1017.9 hPa 0 mm - - -
1788457983 33.89° C 56% 1017.9 hPa 0 mm - - -
1788457683 33.89° C 56% 1018.2 hPa 0 mm - - -
1788457383 33.33° C 56% 1018.2 hPa 0 mm - - -
1788457084 33.33° C 56% 1018.2 hPa 0 mm - - -
1788456783 33.33° C 56% 1018.2 hPa 0 mm - - -
1788456483 33.89° C 55% 1018.2 hPa 0 mm - - -
1788456183 33.89° C 57% 1018.6 hPa 0 mm - - -
1788455884 33.89° C 56% 1018.6 hPa 0 mm - - -

* Rain latest hour (hover to see other rain measurements)
** Current wind speed in m/s (hover to see current wind gust speed)